Alexandria, MN (56308)

4:32 AM CST on February 12, 2016 (GMT -0600)
Burgen Sunrise | | Change Station
CLOSE
Current Station
Personal Weather Station
Location: Alexandria, MN
Elevation: 1398 ft
Nearby Weather Stations

Elev 1398 ft 45.86 °N, 95.35 °W | Updated 22 seconds ago

Partly Cloudy
Partly Cloudy
5.7 °F
Feels Like -11 °F
N
12.8
Wind Variable Wind from North
Gusts 15.0 mph

Today
High -- | Low -- °F
--% Chance of Precip.
Yesterday
High -- | Low -- °F
Precip. -- in
Pressure 30.28 in
Visibility 10.0 miles
Clouds Few 900 ft
Windchill -11 °F
Dew Point -5 °F
Humidity 60%
Rainfall 0.00 in
Snow Depth Not available.
7:29 AM 5:42 PM
Waxing Crescent, 19% visible
SPECI KAXN 121015Z AUTO 32012KT 10SM FEW009 M15/M18 A3028 RMK AO2 T11501178
Pressure 30.28 in
Visibility 10.0 miles
Clouds Few 900 ft
Windchill -11 °F
Dew Point -5 °F
Humidity 60%
Rainfall 0.00 in
Snow Depth Not available.
7:29 AM 5:42 PM
Waxing Crescent, 19% visible
SPECI KAXN 121015Z AUTO 32012KT 10SM FEW009 M15/M18 A3028 RMK AO2 T11501178

10-Day Weather Forecast

Almanac

Astronomy

Feb. 12, 2016 Rise Set
Actual Time
Civil Twilight
Nautical Twilight
Astronomical Twilight
Moon
Length of Visible Light
Length of Day
Tomorrow will be .
, % of the Moon is Illuminated

Today's Extremes

State Highs State Lows

Community

WunderPhotos

Upload Photos

1,892,289 photos uploaded!

WunderBlog® & News

Nearby

Air Quality

  Air Quality AQ Index Pollutant
Not available.

Snow Depth

Station Depth Elevation

Earthquake Activity

City Distance Mag. Time & Date
Minimum magnitude displayed is 2.5.

Coastal Water Temperatures

Place Temperature

Stations

Nearby Weather Stations

Station Location Temp. Windchill Dew Point Humidity Wind Precip. Elev Updated Type
                   

Watches & Warnings

There are currently no watches in effect.